AirNav   Pilot Hours Calculator
 
 1076 users online  

04PA S & C Distribution Center Heliport
Philadelphia, Pennsylvania, USA

GOING TO PHILADELPHIA?


FAA INFORMATION EFFECTIVE 22 APRIL 2021

Location

FAA Identifier: 04PA
Lat/Long: 39-52-45.4070N 075-13-43.6540W
39-52.756783N 075-13.727567W
39.8792797,-75.2287928
(estimated)
Elevation: 50 ft. / 15 m (estimated)
Variation: 11W (1985)
Time zone: UTC -4 (UTC -5 during Standard Time)
Zip code: 19153

Heliport Operations

Heliport use: Private use. Permission required prior to landing
Activation date: 12/1969
Control tower: no
ARTCC: NEW YORK CENTER
FSS: WILLIAMSPORT FLIGHT SERVICE STATION
Attendance: UNATNDD
Wind indicator: yes
Segmented circle: no
Lights: FOR PERIMETER LGTS CALL 215-629-6504.

Heliport Communications

WX ASOS at PHL (0.7 nm SW): PHONE 215-492-9617
WX AWOS-3 at LOM (16 nm N): 118.925 (215-646-1068)
WX ASOS at PNE (16 nm NE): 121.15 (215-677-0146)
WX AWOS-3T at OQN (18 nm W): 121.4 ((610) 692-6190)
WX ASOS at VAY (18 nm E): 119.325 (609-267-1176)

Nearby radio navigation aids

VOR radial/distance  VOR name  Freq  Var
OODr023/15.0WOODSTOWN VORTAC112.8010W
MXEr106/20.5MODENA VORTAC113.2009W
DQOr065/21.2DUPONT VORTAC114.0010W
VCNr339/23.8CEDAR LAKE VOR/DME115.2010W
PTWr153/25.6POTTSTOWN VORTAC116.5009W
ARDr223/26.9YARDLEY VOR/DME108.2010W
GXUr267/30.1MC GUIRE VORTAC110.6012W
CYNr286/36.9COYLE VORTAC113.4010W
RBVr250/38.9ROBBINSVILLE VORTAC113.8010W
ACYr320/39.4ATLANTIC CITY VORTAC117.1510W

 
NDB name  Hdg/Dist  Freq  Var  ID
AMBLER182/15.027512WING .. -. --.
RAINBOW002/28.036311WRNB .-. -. -...

Heliport Services

Airframe service: NONE
Powerplant service: NONE

Runway Information

Helipad H1

Dimensions: 100 x 100 ft. / 30 x 30 m
Surface: concrete, in fair condition
ROOFTOP.
Runway edge lights: PERI
Latitude: 39-52.756783N
Longitude: 075-13.727567W
Elevation: 50.0 ft.
Traffic pattern: leftleft
Markings: none, in fair condition

Heliport Ownership and Management from official FAA records

Ownership: Privately-owned
Owner: STRAWBRIDGE & CLOTHIER
801 MARKET ST
PHILADELPHIA, PA 19105
Phone 215-629-6501
Manager: RONALD B. AVELLINO
801 MARKET ST
PHILADELPHIA, PA 19105
Phone 215-629-6504
VICE PRESIDENT STRAWBRIDGE & CLOTHIER

Additional Remarks

FOR CD CTC PHILADELPHIA APCH AT 800-354-9884.

Instrument Procedures

There are no published instrument procedures at 04PA.

Some nearby airports with instrument procedures:

KPHL - Philadelphia International Airport (1 nm SW)
7N7 - Spitfire Aerodrome (12 nm SW)
17N - Cross Keys Airport (14 nm SE)
19N - Camden County Airport (14 nm SE)
KLOM - Wings Field Airport (16 nm N)
KPNE - Northeast Philadelphia Airport (16 nm NE)
KOQN - Brandywine Regional Airport (18 nm W)
KVAY - South Jersey Regional Airport (18 nm E)
N14 - Flying W Airport (20 nm E)
 
Loc | Ops | Rwys | IFR | FBO | Links
Com | Nav | Svcs | Stats | Notes
Area around 04PA (S & C Distribution Center Heliport)
 
Road maps at: MapQuest Bing Google
 
Aerial photo
No photo
 
Sectional chart

 
Airport distance calculator
Flying to S & C Distribution Center Heliport? Find the distance to fly.

From to 04PA

Sunrise and sunset
Times for 15-May-2021
 Local
(UTC-4)
 Zulu
(UTC)
Morning civil twilight05:1609:16
Sunrise05:4709:47
Sunset20:0800:08
Evening civil twilight20:3800:38

Current date and time
Zulu (UTC)  15-May-2021 20:21:42
Local (UTC-4)  15-May-2021 16:21:42
 
METAR
KPHL 151954Z 15013G21KT 10SM FEW045 BKN100 BKN150 19/06 A3023 RMK AO2 RAB08E17 SLP238 P0000 T01890061
KLOM 
16nm N 
151955Z AUTO 15014G22KT 10SM CLR 20/06 A3023 RMK AO2 T02000062
KPNE 
16nm NE 
151954Z 15011G16KT 10SM SCT110 19/06 A3025 RMK AO2 SLP244 T01890056
KOQN 
18nm W 
151955Z AUTO 04006KT 10SM CLR 25/M04 A3021 RMK AO2
KVAY 
18nm E 
ASOS 119.325 609-267-1176
151954Z AUTO VRB05KT 10SM BKN110 19/05 A3023 RMK AO2 SLP236 T01940050
TAF
KPHL 151720Z 1518/1624 17006KT P6SM VCSH BKN070 FM152300 20006KT P6SM SCT100 FM160300 VRB03KT P6SM SCT150 FM161500 20005KT P6SM BKN100 FM162000 23008KT P6SM BKN080
KPNE 
16nm NE 
151720Z 1518/1618 17006KT P6SM VCSH BKN070 FM152300 19006KT P6SM SCT100 FM160200 VRB03KT P6SM SCT150 FM161500 20005KT P6SM BKN100
NOTAMs
Click for the latest NOTAMs
NOTAMs are issued by the DoD/FAA and will open in a separate window not controlled by AirNav.

 

 
 

Would you like to see your business listed on this page?

 If your business provides an interesting product or service to pilots, flight crews, aircraft, or users of the S & C Distribution Center Heliport, you should consider listing it here.  To start the listing process, click on the button below
 
Add a business
 

Other Pages about S & C Distribution Center Heliport

Update a link
 
Copyright © AirNav, LLC. All rights reserved. Privacy Policy  Contact